Terminal Aerodrome Forecast
Issued by NWS

Home | Current Version | Previous Version | Text Only | Print | Product List | Glossary On
Versions: 1 2 3 4 5 6 7 8 9 10 11 12 13 14 15
000
FTUS45 KRIW 230600 AAA
TAFBPI
TAF AMD
KBPI 230631Z 2307/2406 VRB05KT P6SM VCSH BKN007
     FM231000 VRB04KT 6SM BR SCT040 BKN060
     FM231500 VRB05KT P6SM SCT050 BKN080
     FM231900 29014G24KT P6SM VCSH SCT035 BKN050
     FM240000 31010KT P6SM FEW040 BKN060=

USA.gov is the U.S. government's official web portal to all federal, state and local government web resources and services.